Time;durP1;ratioP1;P1;durP2;ratioP2;P2;SDS_P1;SDS_P2;PMS_P1;PMS_P2;Temp;Humidity;BMP_temperature;BMP_pressure;BME280_temperature;BME280_humidity;BME280_pressure;Samples;Min_cycle;Max_cycle;Signal;HPM_P1;HPM_P2
2023/01/21 00:00:24;;;;;;;14.00;11.00;;;;;;;1.14;54.77;100066.72;10420628;28;20732;-45
2023/01/21 00:05:26;;;;;;;13.10;10.90;;;;;;;1.40;53.76;100075.28;10426139;28;20704;-40
2023/01/21 00:10:28;;;;;;;14.00;12.50;;;;;;;0.85;54.86;100082.91;10426417;28;20235;-42
2023/01/21 00:15:30;;;;;;;12.33;9.37;;;;;;;0.98;54.12;100088.13;10434757;28;20712;-43
2023/01/21 00:20:32;;;;;;;16.47;12.07;;;;;;;-0.03;55.26;100090.19;10433265;28;20329;-41
2023/01/21 00:25:34;;;;;;;28.33;17.10;;;;;;;-0.46;56.16;100109.78;10426287;28;20249;-40
2023/01/21 00:30:36;;;;;;;28.83;16.40;;;;;;;-0.19;55.67;100128.09;10433440;28;20231;-42
2023/01/21 00:35:40;;;;;;;18.23;9.53;;;;;;;-0.20;54.50;100113.22;10422689;28;20708;-41
2023/01/21 00:40:42;;;;;;;14.73;9.50;;;;;;;0.08;54.29;100141.09;10428846;28;20333;-41
2023/01/21 00:45:44;;;;;;;9.67;7.53;;;;;;;0.07;54.32;100134.19;10419044;28;20251;-39
2023/01/21 00:50:46;;;;;;;39.73;22.07;;;;;;;-0.03;56.25;100166.47;10433737;28;20233;-40
2023/01/21 00:55:48;;;;;;;11.40;9.50;;;;;;;-0.34;58.27;100192.25;10438418;28;20967;-41
2023/01/21 01:00:49;;;;;;;12.43;9.70;;;;;;;0.94;55.83;100163.09;10431606;28;20239;-42
2023/01/21 01:05:51;;;;;;;11.67;9.77;;;;;;;0.23;56.59;100160.25;10425182;28;20981;-41
2023/01/21 01:10:53;;;;;;;13.57;10.07;;;;;;;0.20;56.07;100157.81;10424774;28;20241;-40
2023/01/21 01:15:56;;;;;;;14.87;12.63;;;;;;;-0.92;58.94;100202.16;10432469;28;20235;-44
2023/01/21 01:20:59;;;;;;;18.40;14.27;;;;;;;-1.42;60.13;100228.09;10432082;28;20237;-41
2023/01/21 01:26:03;;;;;;;15.87;12.93;;;;;;;-1.30;60.46;100253.56;10435567;28;20781;-41
2023/01/21 01:31:07;;;;;;;16.63;13.70;;;;;;;-1.68;61.42;100269.91;10427190;28;20237;-43
2023/01/21 01:36:24;;;;;;;15.83;13.13;;;;;;;-1.55;61.77;100263.00;10427578;22;20243;-36
2023/01/21 01:41:28;;;;;;;17.20;13.07;;;;;;;-1.35;62.21;100253.03;10384407;28;20306;-36
2023/01/21 01:46:34;;;;;;;17.03;12.93;;;;;;;-1.19;61.14;100235.38;10377659;28;20233;-36
2023/01/21 01:51:44;;;;;;;20.70;14.50;;;;;;;-0.84;60.31;100228.78;10395263;28;20247;-36
2023/01/21 01:56:50;;;;;;;18.53;14.83;;;;;;;-0.39;58.54;100221.50;10394067;28;20233;-34
2023/01/21 02:01:52;;;;;;;18.77;14.20;;;;;;;-0.03;59.12;100216.47;10396034;28;20690;-36
2023/01/21 02:06:55;;;;;;;17.37;14.37;;;;;;;-0.44;60.16;100232.31;10394492;28;20722;-36
2023/01/21 02:11:59;;;;;;;14.33;11.50;;;;;;;-0.68;61.53;100241.78;10396731;28;20244;-36
2023/01/21 02:17:54;;;;;;;17.30;13.80;;;;;;;-0.26;59.80;100221.53;10391418;28;20239;-36
2023/01/21 02:22:58;;;;;;;19.33;13.83;;;;;;;-0.22;59.04;100220.34;10306838;28;20723;-37
2023/01/21 02:28:30;;;;;;;18.77;12.87;;;;;;;-0.61;59.64;100227.28;10392379;28;20238;-36
2023/01/21 02:34:20;;;;;;;18.80;13.87;;;;;;;-0.54;59.47;100233.84;10389439;28;20234;-36
2023/01/21 02:39:43;;;;;;;21.17;15.67;;;;;;;-1.42;61.36;100276.19;10335256;28;20234;-36
2023/01/21 02:45:02;;;;;;;21.67;16.50;;;;;;;-1.69;62.36;100302.34;10384819;28;20242;-36
2023/01/21 02:50:11;;;;;;;19.67;13.90;;;;;;;-1.14;60.76;100256.09;10382236;28;20249;-36
2023/01/21 02:55:15;;;;;;;15.47;12.80;;;;;;;-1.14;61.08;100258.72;10392303;28;20236;-36
2023/01/21 03:00:21;;;;;;;14.17;11.37;;;;;;;-1.28;60.17;100253.47;10387626;28;20719;-36
2023/01/21 03:05:56;;;;;;;17.27;12.77;;;;;;;-1.18;59.94;100255.44;10387875;28;20631;-36
2023/01/21 03:11:14;;;;;;;16.43;13.27;;;;;;;-1.86;62.43;100310.38;10394199;28;20272;-36
2023/01/21 03:21:39;;;;;;;16.93;13.60;;;;;;;-1.83;62.04;100295.28;10377109;28;21208;-36
2023/01/21 03:26:46;;;;;;;19.10;12.57;;;;;;;-1.08;60.46;100252.22;10381289;28;20226;-36
2023/01/21 03:31:52;;;;;;;16.67;13.07;;;;;;;-1.29;59.96;100257.91;10391135;28;20278;-37
2023/01/21 03:37:01;;;;;;;15.70;12.30;;;;;;;-1.37;60.36;100260.16;10388411;28;20600;-36
2023/01/21 03:42:02;;;;;;;14.50;11.73;;;;;;;-1.32;60.81;100276.47;10391711;28;20646;-37
2023/01/21 03:47:27;;;;;;;16.90;13.10;;;;;;;-0.88;59.25;100253.59;10395520;28;20236;-36
2023/01/21 03:52:29;;;;;;;14.67;11.50;;;;;;;-0.96;59.88;100263.75;10386360;22;20229;-86
2023/01/21 03:57:31;;;;;;;15.43;13.07;;;;;;;-1.84;60.79;100303.25;10380486;28;20233;-83
2023/01/21 04:02:33;;;;;;;17.33;12.30;;;;;;;-0.93;58.43;100267.00;10391380;28;20261;-86
2023/01/21 04:07:34;;;;;;;16.50;12.40;;;;;;;-1.89;58.93;100303.53;10382042;28;20241;-85
2023/01/21 04:12:37;;;;;;;19.70;12.13;;;;;;;-1.17;57.20;100282.56;10386884;28;20763;-86
2023/01/21 04:17:38;;;;;;;14.00;11.57;;;;;;;-1.50;57.93;100301.22;10386634;28;20323;-81
2023/01/21 04:22:40;;;;;;;16.00;11.67;;;;;;;-1.83;58.35;100341.69;10383841;28;20228;-84
2023/01/21 04:27:42;;;;;;;14.20;11.80;;;;;;;-1.98;57.55;100351.28;10390743;28;20222;-84
2023/01/21 04:32:43;;;;;;;15.23;11.37;;;;;;;-1.52;56.39;100326.72;10378649;28;20497;-86
2023/01/21 04:37:45;;;;;;;16.57;11.30;;;;;;;-1.50;56.41;100335.34;10390442;28;20306;-84
2023/01/21 04:42:47;;;;;;;16.83;11.77;;;;;;;-1.61;57.30;100368.34;10383772;28;20229;-82
2023/01/21 04:47:48;;;;;;;14.90;11.07;;;;;;;-2.90;57.55;100426.22;10398352;28;20240;-83
2023/01/21 04:52:50;;;;;;;16.53;10.97;;;;;;;-1.69;56.68;100380.22;10383742;28;20317;-82
2023/01/21 04:57:52;;;;;;;13.67;10.40;;;;;;;-2.08;56.67;100408.66;10384816;28;20231;-82
2023/01/21 05:02:54;;;;;;;14.90;11.43;;;;;;;-1.56;56.10;100386.44;10383881;28;20243;-83
2023/01/21 05:07:55;;;;;;;15.47;10.87;;;;;;;-1.75;56.01;100399.78;10377594;28;20400;-82
2023/01/21 05:12:58;;;;;;;13.23;10.80;;;;;;;-2.30;56.46;100433.47;10382215;28;20229;-83
2023/01/21 05:17:59;;;;;;;12.73;10.63;;;;;;;-1.68;56.75;100416.03;10414197;28;20244;-83
2023/01/21 05:23:01;;;;;;;13.87;11.43;;;;;;;-1.28;55.74;100383.00;10397234;28;20252;-84
2023/01/21 05:28:03;;;;;;;12.40;10.80;;;;;;;-1.80;56.79;100433.31;10382735;28;20243;-83
2023/01/21 05:33:04;;;;;;;14.33;11.77;;;;;;;-2.92;58.63;100504.03;10382739;28;20620;-85
2023/01/21 05:38:06;;;;;;;15.20;12.60;;;;;;;-2.99;58.67;100507.91;10385126;28;20240;-82
2023/01/21 05:43:08;;;;;;;18.53;12.30;;;;;;;-2.53;58.65;100495.00;10377479;28;20783;-85
2023/01/21 05:48:09;;;;;;;18.90;14.50;;;;;;;-2.33;59.28;100480.81;10380530;28;20615;-82
2023/01/21 05:53:11;;;;;;;21.77;16.30;;;;;;;-3.29;60.85;100562.63;10380607;28;20594;-83
2023/01/21 05:58:13;;;;;;;22.43;16.60;;;;;;;-3.21;60.55;100539.53;10386632;28;20221;-81
2023/01/21 06:03:15;;;;;;;24.73;18.93;;;;;;;-3.45;61.57;100571.25;10377225;28;20266;-84
2023/01/21 06:08:18;;;;;;;24.80;19.27;;;;;;;-2.95;61.24;100529.53;10377718;28;20547;-81
2023/01/21 06:13:19;;;;;;;24.27;19.30;;;;;;;-2.94;59.73;100534.72;10375249;28;20224;-81
2023/01/21 06:18:22;;;;;;;27.20;20.63;;;;;;;-2.93;60.87;100540.78;10379492;28;20237;-83
2023/01/21 06:23:23;;;;;;;29.27;21.27;;;;;;;-3.71;61.29;100589.94;10374522;28;20590;-82
2023/01/21 06:28:25;;;;;;;30.33;21.47;;;;;;;-4.06;61.48;100613.34;10389683;28;20238;-82
2023/01/21 06:33:27;;;;;;;29.33;21.17;;;;;;;-3.45;61.11;100568.63;10379673;28;20228;-84
2023/01/21 06:38:29;;;;;;;30.60;22.10;;;;;;;-3.25;61.03;100564.16;10380699;28;20275;-84
2023/01/21 06:43:30;;;;;;;29.30;21.77;;;;;;;-2.49;59.62;100517.53;10386353;28;20592;-82
2023/01/21 06:48:32;;;;;;;31.27;20.83;;;;;;;-3.26;60.84;100583.44;10392112;28;20233;-82
2023/01/21 06:53:34;;;;;;;34.77;22.47;;;;;;;-2.92;60.46;100556.44;10371426;28;20229;-84
2023/01/21 06:58:36;;;;;;;28.03;20.40;;;;;;;-2.74;58.91;100543.34;10376956;28;20367;-82
2023/01/21 07:03:37;;;;;;;28.40;21.50;;;;;;;-2.47;57.99;100546.28;10376982;28;20236;-84
2023/01/21 07:08:39;;;;;;;34.60;24.03;;;;;;;-3.92;61.74;100665.88;10375242;28;20697;-82
2023/01/21 07:13:41;;;;;;;33.90;19.60;;;;;;;-3.44;60.47;100632.25;10379357;28;20711;-82
2023/01/21 07:18:42;;;;;;;28.93;19.23;;;;;;;-2.88;60.47;100580.69;10384391;28;20242;-82
2023/01/21 07:23:45;;;;;;;29.57;19.90;;;;;;;-3.46;60.33;100641.97;10399781;28;20853;-83
2023/01/21 07:28:47;;;;;;;30.27;19.63;;;;;;;-2.67;59.58;100570.91;10398794;28;20349;-85
2023/01/21 07:33:49;;;;;;;28.73;19.67;;;;;;;-3.40;60.20;100628.59;10393827;28;20237;-86
2023/01/21 07:38:50;;;;;;;26.53;18.20;;;;;;;-3.82;60.26;100672.38;10392297;28;20252;-84
2023/01/21 07:43:52;;;;;;;28.93;19.97;;;;;;;-3.06;59.05;100619.94;10389621;28;20236;-87
2023/01/21 07:48:54;;;;;;;26.00;17.93;;;;;;;-2.28;57.69;100572.34;10367203;28;20236;-87
2023/01/21 07:53:56;;;;;;;23.77;16.17;;;;;;;-2.98;58.78;100637.06;10389214;28;20305;-86
2023/01/21 07:58:57;;;;;;;20.83;14.03;;;;;;;-3.29;58.69;100662.09;10403487;28;20251;-83
2023/01/21 08:04:00;;;;;;;21.93;14.80;;;;;;;-2.32;57.86;100595.28;10417247;28;20647;-85
2023/01/21 08:09:02;;;;;;;24.40;15.23;;;;;;;-2.51;57.20;100623.34;10405438;28;20229;-86
2023/01/21 08:14:04;;;;;;;22.53;14.77;;;;;;;-2.17;58.18;100616.34;10397427;28;20233;-86
2023/01/21 08:19:06;;;;;;;20.40;14.57;;;;;;;-1.41;56.31;100587.69;10402070;28;20221;-87
2023/01/21 08:24:08;;;;;;;20.17;14.07;;;;;;;-1.88;56.63;100630.56;10400466;28;20780;-86
2023/01/21 08:29:11;;;;;;;22.00;15.43;;;;;;;-1.57;56.60;100627.06;10402520;28;20241;-85
2023/01/21 08:34:14;;;;;;;23.20;15.43;;;;;;;-0.90;56.07;100607.59;10393776;28;20257;-86
2023/01/21 08:39:16;;;;;;;23.27;14.70;;;;;;;-2.62;57.24;100699.06;10385598;28;20244;-87
2023/01/21 08:44:18;;;;;;;21.57;15.67;;;;;;;-2.74;58.61;100706.63;10395776;28;20237;-88
2023/01/21 08:49:21;;;;;;;24.80;15.53;;;;;;;-2.41;58.58;100702.38;10397644;28;20323;-88
2023/01/21 08:54:23;;;;;;;22.57;14.67;;;;;;;-2.42;58.15;100700.69;10395093;28;20770;-87
2023/01/21 08:59:27;;;;;;;23.43;15.83;;;;;;;-2.45;58.54;100719.19;10392062;28;20416;-87
2023/01/21 09:04:29;;;;;;;20.97;14.87;;;;;;;-2.86;59.39;100741.28;10385977;28;20326;-86
2023/01/21 09:09:34;;;;;;;21.50;14.43;;;;;;;-2.77;58.50;100734.75;10400144;28;20240;-87
2023/01/21 09:14:35;;;;;;;23.20;15.17;;;;;;;-2.51;58.43;100720.34;10402730;28;20249;-86
2023/01/21 09:19:37;;;;;;;25.97;15.83;;;;;;;-2.03;58.44;100705.66;10399480;28;20711;-86
2023/01/21 09:24:39;;;;;;;24.90;17.17;;;;;;;-3.38;60.55;100790.81;10418412;28;20301;-88
2023/01/21 09:29:40;;;;;;;26.87;18.80;;;;;;;-2.23;59.52;100717.19;10396410;28;20264;-86
2023/01/21 09:34:42;;;;;;;26.57;18.63;;;;;;;-1.42;58.68;100685.78;10392083;28;20245;-87
2023/01/21 09:39:44;;;;;;;26.03;18.07;;;;;;;-2.56;59.68;100744.19;10396758;28;20254;-87
2023/01/21 09:44:52;;;;;;;23.67;17.17;;;;;;;-1.34;57.35;100685.38;10394833;28;20232;-85
2023/01/21 09:50:06;;;;;;;25.17;16.23;;;;;;;-2.18;58.26;100730.91;10392071;28;20711;-88
2023/01/21 09:55:46;;;;;;;23.70;16.27;;;;;;;-1.64;57.45;100716.75;10391032;28;20710;-87
2023/01/21 10:00:56;;;;;;;26.30;16.50;;;;;;;-2.26;59.35;100743.53;10384312;28;20228;-87
2023/01/21 10:06:12;;;;;;;25.70;18.20;;;;;;;-2.70;60.00;100778.91;10381946;28;20240;-86
2023/01/21 10:11:19;;;;;;;28.47;16.80;;;;;;;-2.05;58.10;100728.50;10388651;28;20228;-87
2023/01/21 10:16:44;;;;;;;22.73;16.80;;;;;;;-2.32;58.46;100757.81;10395204;28;20311;-86
2023/01/21 10:22:04;;;;;;;26.70;18.50;;;;;;;-1.68;56.84;100730.97;10390338;28;20248;-87
2023/01/21 10:27:13;;;;;;;34.77;21.63;;;;;;;-2.05;58.29;100754.75;10392086;28;20220;-87
2023/01/21 10:32:21;;;;;;;29.90;20.87;;;;;;;-3.55;60.25;100831.66;10392912;28;20722;-86
2023/01/21 10:37:39;;;;;;;28.80;19.83;;;;;;;-1.24;56.54;100711.97;10391041;28;20954;-86
2023/01/21 10:43:00;;;;;;;30.30;20.53;;;;;;;-1.65;57.31;100723.78;10391128;28;20275;-90
2023/01/21 10:48:23;;;;;;;29.17;19.27;;;;;;;-2.43;57.59;100756.66;10392271;28;20303;-87
2023/01/21 10:53:40;;;;;;;25.43;18.67;;;;;;;-1.61;57.05;100716.59;10390593;28;20236;-88
2023/01/21 10:58:51;;;;;;;25.77;18.37;;;;;;;-1.53;57.96;100711.78;10390271;28;20228;-89
2023/01/21 11:06:23;;;;;;;32.03;20.63;;;;;;;-4.49;64.39;100829.50;10489480;27;20341;-62
2023/01/21 11:11:28;;;;;;;27.80;19.50;;;;;;;-4.09;63.75;100780.78;10410835;28;20281;-62
2023/01/21 11:16:43;;;;;;;25.97;18.83;;;;;;;-3.58;62.09;100758.53;10412583;28;20751;-61
2023/01/21 11:21:57;;;;;;;27.13;17.47;;;;;;;-3.42;62.39;100735.09;10394806;28;20236;-62
2023/01/21 11:27:00;;;;;;;26.80;18.17;;;;;;;-3.30;62.34;100718.00;10421097;28;20224;-62
2023/01/21 11:32:13;;;;;;;26.57;18.37;;;;;;;-2.82;60.37;100698.28;10439667;28;20468;-62
2023/01/21 11:37:23;;;;;;;26.70;20.17;;;;;;;-3.33;61.71;100728.63;10406936;28;20675;-62
2023/01/21 11:42:25;;;;;;;27.47;18.40;;;;;;;-3.40;61.89;100728.06;10428216;28;20229;-61
2023/01/21 11:47:58;;;;;;;22.90;16.60;;;;;;;-2.90;60.44;100705.66;10404444;28;20232;-62
2023/01/21 11:53:05;;;;;;;23.40;16.57;;;;;;;-2.67;60.26;100699.28;10417727;28;20609;-61
2023/01/21 11:58:39;;;;;;;23.87;17.40;;;;;;;-3.18;61.25;100732.28;10401292;28;20239;-61
2023/01/21 12:03:46;;;;;;;21.70;15.40;;;;;;;-2.48;60.37;100681.72;10381123;28;20237;-62
2023/01/21 12:08:51;;;;;;;24.00;16.50;;;;;;;-3.43;61.60;100741.28;10395362;28;20327;-61
2023/01/21 12:14:05;;;;;;;26.90;16.40;;;;;;;-3.10;61.49;100736.25;10425267;28;20225;-63
2023/01/21 12:19:09;;;;;;;22.70;16.00;;;;;;;-3.19;61.50;100730.59;10370658;28;20221;-62
2023/01/21 12:24:44;;;;;;;21.13;15.53;;;;;;;-2.66;60.62;100693.13;10358017;28;20905;-60
2023/01/21 12:30:14;;;;;;;22.63;15.47;;;;;;;-3.64;61.48;100777.09;10401581;28;20247;-61
2023/01/21 12:35:26;;;;;;;22.83;15.57;;;;;;;-3.29;61.35;100738.84;10398468;28;20721;-61
2023/01/21 12:40:32;;;;;;;24.17;18.10;;;;;;;-4.01;62.35;100799.63;10368544;28;20257;-63
2023/01/21 12:45:44;;;;;;;23.73;15.97;;;;;;;-3.07;61.82;100720.38;10393235;28;20436;-61
2023/01/21 12:50:55;;;;;;;20.73;15.17;;;;;;;-3.60;62.51;100745.50;10374500;28;20228;-61
2023/01/21 12:56:16;;;;;;;23.90;16.00;;;;;;;-3.53;61.82;100737.38;10406823;28;20541;-62
2023/01/21 13:01:38;;;;;;;24.23;15.67;;;;;;;-3.46;62.76;100734.41;10408794;28;20233;-61
2023/01/21 13:06:55;;;;;;;23.07;16.13;;;;;;;-4.33;62.47;100825.31;10402584;28;20283;-63
2023/01/21 13:12:02;;;;;;;21.97;16.20;;;;;;;-3.65;62.35;100757.09;10402620;28;20613;-62
2023/01/21 13:17:27;;;;;;;23.10;16.03;;;;;;;-3.99;62.10;100795.19;10404628;28;20240;-62
2023/01/21 13:22:47;;;;;;;23.50;15.00;;;;;;;-4.06;63.07;100786.75;10403553;28;20311;-62
2023/01/21 13:28:17;;;;;;;21.97;15.10;;;;;;;-3.60;62.71;100742.06;10405450;28;20334;-62
2023/01/21 13:33:28;;;;;;;21.70;14.93;;;;;;;-3.36;62.22;100713.06;10405042;28;20258;-62
2023/01/21 13:38:44;;;;;;;21.70;15.10;;;;;;;-3.87;63.18;100776.34;10399078;28;20272;-62
2023/01/21 13:44:01;;;;;;;23.13;15.43;;;;;;;-3.72;62.48;100748.69;10405363;28;20247;-62
2023/01/21 13:49:22;;;;;;;25.53;15.43;;;;;;;-4.20;63.47;100807.38;10402215;28;20221;-62
2023/01/21 13:54:47;;;;;;;23.30;15.33;;;;;;;-2.98;61.83;100694.69;10403585;28;20622;-62
2023/01/21 14:00:30;;;;;;;22.40;16.07;;;;;;;-3.77;62.64;100763.72;10405425;28;20248;-61
2023/01/21 14:05:42;;;;;;;21.00;14.77;;;;;;;-3.43;62.23;100713.34;10368757;28;20247;-60
2023/01/21 14:11:10;;;;;;;20.70;14.23;;;;;;;-3.70;62.69;100752.06;10402747;28;20239;-63
2023/01/21 14:16:34;;;;;;;19.23;13.37;;;;;;;-3.09;61.88;100706.50;10406952;28;20260;-60
2023/01/21 14:21:52;;;;;;;20.13;15.03;;;;;;;-3.98;63.00;100782.03;10400828;28;20467;-62
2023/01/21 14:27:17;;;;;;;19.90;14.70;;;;;;;-3.59;61.36;100754.19;10400923;28;20236;-62
2023/01/21 14:32:22;;;;;;;20.27;13.33;;;;;;;-3.62;62.22;100756.97;10400850;28;20236;-61
2023/01/21 14:37:29;;;;;;;22.63;14.37;;;;;;;-2.66;60.94;100690.50;10399124;28;20237;-62
2023/01/21 14:42:47;;;;;;;20.20;14.30;;;;;;;-3.55;62.58;100755.78;10401714;28;20608;-60
2023/01/21 14:47:52;;;;;;;20.30;14.17;;;;;;;-4.12;62.72;100813.16;10398915;28;20242;-61
2023/01/21 14:52:54;;;;;;;18.20;12.90;;;;;;;-3.57;62.03;100773.31;10407082;28;20259;-62
2023/01/21 14:57:59;;;;;;;19.13;13.57;;;;;;;-3.08;61.20;100744.03;10401844;28;20229;-62
2023/01/21 15:03:01;;;;;;;19.67;14.53;;;;;;;-3.45;62.23;100762.28;10398471;28;20236;-62
2023/01/21 15:08:29;;;;;;;28.53;20.00;;;;;;;-1.81;59.44;100699.28;10400333;28;20820;-63
2023/01/21 15:13:36;;;;;;;19.87;15.30;;;;;;;-1.93;59.09;100727.03;10405163;28;20232;-61
2023/01/21 15:18:44;;;;;;;32.10;22.13;;;;;;;-3.05;61.85;100764.81;10404027;28;20251;-62
2023/01/21 15:23:48;;;;;;;18.10;12.47;;;;;;;-3.67;62.38;100819.09;10401314;28;20236;-61
2023/01/21 15:28:54;;;;;;;17.53;13.47;;;;;;;-4.09;62.43;100856.59;10402346;28;20247;-62
2023/01/21 15:33:59;;;;;;;18.40;12.23;;;;;;;-3.24;61.20;100784.00;10363452;28;20322;-61
2023/01/21 15:39:13;;;;;;;15.40;11.77;;;;;;;-3.74;62.72;100839.47;10395231;28;20721;-64
2023/01/21 15:44:25;;;;;;;17.27;12.73;;;;;;;-3.92;62.20;100845.47;10363850;28;20276;-65
2023/01/21 15:49:36;;;;;;;15.07;10.93;;;;;;;-3.30;61.58;100796.53;10399556;28;20245;-65
2023/01/21 15:55:07;;;;;;;15.10;11.87;;;;;;;-3.04;60.29;100777.88;10401929;28;20683;-65
2023/01/21 16:00:30;;;;;;;13.97;10.80;;;;;;;-3.36;61.41;100802.91;10407446;28;20247;-63
2023/01/21 16:05:47;;;;;;;15.97;10.43;;;;;;;-3.26;61.04;100795.47;10410888;28;20233;-63
2023/01/21 16:11:15;;;;;;;12.37;9.73;;;;;;;-3.55;61.50;100815.97;10397607;28;20244;-64
2023/01/21 16:16:35;;;;;;;12.97;10.00;;;;;;;-3.18;60.45;100801.22;10405723;28;20229;-64
2023/01/21 16:21:41;;;;;;;12.53;9.30;;;;;;;-3.12;61.43;100807.94;10406755;28;20646;-64
2023/01/21 16:26:43;;;;;;;13.13;8.80;;;;;;;-2.72;60.11;100777.28;10410524;28;20707;-64
2023/01/21 16:31:50;;;;;;;17.40;11.13;;;;;;;-3.25;60.73;100824.22;10405227;28;20887;-65
2023/01/21 16:36:52;;;;;;;16.47;9.80;;;;;;;-3.33;59.67;100846.44;10404793;28;20250;-65
2023/01/21 16:42:03;;;;;;;11.53;9.80;;;;;;;-2.26;58.94;100796.00;10399383;28;20243;-64
2023/01/21 16:47:04;;;;;;;13.57;10.03;;;;;;;-3.35;60.34;100850.84;10379599;28;20238;-64
2023/01/21 16:52:17;;;;;;;12.27;9.40;;;;;;;-3.11;59.95;100844.53;10391277;28;20232;-66
2023/01/21 16:57:22;;;;;;;13.17;10.10;;;;;;;-2.74;59.41;100819.28;10380211;28;20229;-65
2023/01/21 17:02:31;;;;;;;14.70;10.90;;;;;;;-2.50;60.12;100821.66;10390889;28;20244;-66
2023/01/21 17:07:48;;;;;;;13.33;10.33;;;;;;;-3.44;61.32;100886.97;10377856;28;20244;-64
2023/01/21 17:12:57;;;;;;;12.97;9.27;;;;;;;-3.12;60.44;100860.31;10399981;28;20236;-64
2023/01/21 17:17:59;;;;;;;15.20;9.47;;;;;;;-2.81;60.34;100851.06;10353687;28;20233;-64
2023/01/21 17:23:08;;;;;;;12.30;8.97;;;;;;;-2.50;59.18;100846.09;10410550;28;20896;-65
2023/01/21 17:28:27;;;;;;;11.47;9.83;;;;;;;-3.17;60.00;100865.75;10404126;28;20237;-64
2023/01/21 17:33:29;;;;;;;14.70;10.43;;;;;;;-2.46;58.75;100853.81;10355895;28;20236;-64
2023/01/21 17:38:38;;;;;;;14.90;10.17;;;;;;;-1.68;57.42;100859.56;10406538;28;20233;-65
2023/01/21 17:43:48;;;;;;;11.50;9.23;;;;;;;-1.96;56.96;100874.94;10364629;28;20624;-64
2023/01/21 17:48:56;;;;;;;11.57;8.40;;;;;;;-1.80;58.13;100882.03;10396812;28;20249;-65
2023/01/21 17:54:04;;;;;;;17.33;12.17;;;;;;;-2.85;59.11;100913.25;10350086;28;20887;-65
2023/01/21 17:59:24;;;;;;;10.53;8.60;;;;;;;-2.87;60.33;100931.66;10397900;28;20229;-65
2023/01/21 18:04:26;;;;;;;14.80;10.67;;;;;;;-2.04;58.33;100894.59;10369650;28;20232;-64
2023/01/21 18:09:29;;;;;;;11.83;9.13;;;;;;;-2.50;58.32;100908.16;10406335;28;20237;-63
2023/01/21 18:14:31;;;;;;;14.93;8.93;;;;;;;-2.57;58.63;100923.31;10404840;28;20233;-65
2023/01/21 18:19:36;;;;;;;12.23;9.90;;;;;;;-2.32;58.05;100911.69;10361364;28;20752;-64
2023/01/21 18:24:37;;;;;;;11.13;8.00;;;;;;;-2.53;58.73;100919.63;10400222;28;20246;-65
2023/01/21 18:29:40;;;;;;;11.80;7.90;;;;;;;-2.25;58.35;100913.09;10361189;28;20255;-64
2023/01/21 18:34:42;;;;;;;10.47;8.07;;;;;;;-1.75;58.07;100901.03;10394751;28;20241;-64
2023/01/21 18:39:43;;;;;;;13.13;8.67;;;;;;;-2.53;57.99;100910.91;10361392;28;20241;-66
2023/01/21 18:44:45;;;;;;;10.93;8.47;;;;;;;-1.95;57.57;100905.50;10365638;28;20282;-64
2023/01/21 18:49:49;;;;;;;10.90;8.23;;;;;;;-2.23;58.11;100919.09;10399875;28;20244;-63
2023/01/21 18:54:51;;;;;;;12.40;9.93;;;;;;;-2.48;58.08;100928.13;10379741;28;20241;-65
2023/01/21 18:59:52;;;;;;;10.83;8.10;;;;;;;-2.07;58.09;100908.75;10354085;28;20245;-64
2023/01/21 19:04:54;;;;;;;10.57;8.70;;;;;;;-2.32;59.09;100920.38;10392143;28;20847;-64
2023/01/21 19:09:56;;;;;;;10.60;8.50;;;;;;;-2.21;59.36;100905.91;10389389;28;20245;-65
2023/01/21 19:14:57;;;;;;;14.37;9.13;;;;;;;-1.83;58.10;100906.66;10394536;28;20236;-64
2023/01/21 19:19:59;;;;;;;12.27;9.07;;;;;;;-2.61;58.87;100924.38;10395375;28;20318;-65
2023/01/21 19:25:01;;;;;;;11.33;8.47;;;;;;;-2.81;59.46;100930.53;10394803;28;20233;-64
2023/01/21 19:30:30;;;;;;;12.33;9.13;;;;;;;-3.22;59.81;100946.25;10400803;28;20228;-64
2023/01/21 19:35:35;;;;;;;11.17;8.70;;;;;;;-1.83;58.13;100883.06;10398062;28;20233;-63
2023/01/21 19:40:37;;;;;;;12.90;8.27;;;;;;;-1.66;58.10;100892.69;10400420;28;21046;-64
2023/01/21 19:45:39;;;;;;;26.47;18.13;;;;;;;-2.55;58.40;100904.91;10399107;28;20875;-65
2023/01/21 19:50:41;;;;;;;13.10;9.17;;;;;;;-2.27;59.33;100909.69;10400353;28;20608;-64
2023/01/21 19:55:44;;;;;;;11.57;8.37;;;;;;;-2.09;58.26;100902.69;10398198;28;20242;-64
2023/01/21 20:00:48;;;;;;;11.37;8.23;;;;;;;-3.12;60.38;100946.72;10401380;28;20662;-65
2023/01/21 20:05:52;;;;;;;11.90;8.00;;;;;;;-2.51;59.23;100911.69;10395676;28;20240;-65
2023/01/21 20:10:55;;;;;;;9.70;7.87;;;;;;;-2.94;59.02;100934.63;10397767;28;20229;-64
2023/01/21 20:16:02;;;;;;;10.67;7.80;;;;;;;-2.55;59.13;100921.47;10397778;28;20241;-64
2023/01/21 20:21:04;;;;;;;12.10;8.77;;;;;;;-1.82;58.27;100902.25;10397248;28;20232;-64
2023/01/21 20:26:19;;;;;;;10.27;8.10;;;;;;;-2.84;59.65;100946.38;10397445;28;20232;-64
2023/01/21 20:31:21;;;;;;;10.93;8.30;;;;;;;-2.83;59.88;100942.84;10396179;28;20243;-64
2023/01/21 20:36:25;;;;;;;11.97;8.83;;;;;;;-2.45;59.93;100928.91;10396235;28;20244;-65
2023/01/21 20:41:26;;;;;;;11.23;8.50;;;;;;;-2.81;61.44;100940.16;10393866;28;20248;-64
2023/01/21 20:46:29;;;;;;;12.83;8.90;;;;;;;-3.06;62.57;100943.84;10398760;28;20240;-65
2023/01/21 20:51:30;;;;;;;13.70;9.87;;;;;;;-1.81;62.24;100894.31;10395422;28;20243;-64
2023/01/21 20:56:32;;;;;;;12.30;9.87;;;;;;;-1.86;62.08;100903.34;10401932;28;20746;-64
2023/01/21 21:01:35;;;;;;;12.93;9.27;;;;;;;-2.14;62.79;100896.81;10398578;28;20240;-65
2023/01/21 21:06:37;;;;;;;11.13;8.90;;;;;;;-1.89;63.65;100893.84;10374317;28;20244;-64
2023/01/21 21:11:39;;;;;;;14.20;10.10;;;;;;;-2.61;65.07;100905.16;10382114;28;20229;-65
2023/01/21 21:16:40;;;;;;;14.30;10.27;;;;;;;-1.94;62.57;100882.72;10389866;28;20243;-64
2023/01/21 21:21:42;;;;;;;16.00;10.03;;;;;;;-2.03;63.00;100880.56;10394306;28;20256;-65
2023/01/21 21:26:44;;;;;;;14.27;10.77;;;;;;;-2.65;63.14;100887.91;10393724;28;20243;-65
2023/01/21 21:31:47;;;;;;;13.00;10.17;;;;;;;-1.65;61.74;100883.91;10376895;28;20244;-65
2023/01/21 21:36:49;;;;;;;12.50;9.07;;;;;;;-1.66;61.48;100871.69;10382814;28;20238;-64
2023/01/21 21:52:32;;;;;;;14.80;10.30;;;;;;;-2.45;63.57;100884.34;10390884;28;20252;-65
2023/01/21 21:57:34;;;;;;;15.20;10.50;;;;;;;-1.50;62.33;100868.28;10394951;28;20232;-65
2023/01/21 22:02:35;;;;;;;14.83;10.37;;;;;;;-2.48;63.66;100880.94;10392550;28;20244;-64
2023/01/21 22:07:37;;;;;;;14.33;10.37;;;;;;;-1.83;61.95;100876.97;10387234;28;20241;-64
2023/01/21 22:12:39;;;;;;;16.07;11.17;;;;;;;-2.32;61.69;100881.06;10394180;28;20232;-66
2023/01/21 22:17:40;;;;;;;15.60;10.63;;;;;;;-1.69;61.56;100874.47;10391162;28;20535;-64
2023/01/21 22:22:42;;;;;;;14.57;9.90;;;;;;;-2.36;62.40;100878.66;10358534;28;20253;-65
2023/01/21 22:27:44;;;;;;;14.33;10.47;;;;;;;-2.17;62.49;100860.25;10347319;28;20249;-66
2023/01/21 22:32:45;;;;;;;13.73;10.03;;;;;;;-2.19;62.00;100860.34;10386235;28;20591;-64
2023/01/21 22:37:47;;;;;;;14.40;9.77;;;;;;;-1.64;59.55;100890.00;10358800;28;20814;-65
2023/01/21 22:42:49;;;;;;;12.83;8.67;;;;;;;-0.63;59.96;100881.16;10350731;28;20241;-65
2023/01/21 22:47:50;;;;;;;13.17;9.60;;;;;;;-0.89;58.65;100907.09;10383170;28;20233;-65
2023/01/21 22:52:52;;;;;;;14.67;10.33;;;;;;;-1.33;59.74;100880.53;10388633;28;20237;-64
2023/01/21 22:57:54;;;;;;;12.30;9.30;;;;;;;-1.79;61.16;100874.09;10356240;28;20712;-65
2023/01/21 23:02:56;;;;;;;13.23;8.83;;;;;;;-1.37;59.85;100870.19;10382991;28;20237;-64
2023/01/21 23:07:57;;;;;;;14.67;9.70;;;;;;;-1.03;59.78;100881.53;10356961;28;20239;-65
2023/01/21 23:13:00;;;;;;;13.47;9.07;;;;;;;-0.70;58.88;100895.59;10388649;28;20245;-64
2023/01/21 23:18:02;;;;;;;13.97;9.63;;;;;;;-0.76;60.27;100880.13;10349825;28;20242;-64
2023/01/21 23:23:04;;;;;;;13.47;9.70;;;;;;;-0.24;58.86;100900.94;10353518;28;20259;-65